sensor_id;sensor_type;location;lat;lon;timestamp;P1;durP1;ratioP1;P2;durP2;ratioP2
42944;SDS011;28584;42.636;23.294;2023-10-19T00:00:35;18.73;;;15.13;;
42944;SDS011;28584;42.636;23.294;2023-10-19T00:03:04;18.90;;;14.77;;
42944;SDS011;28584;42.636;23.294;2023-10-19T00:05:34;21.73;;;16.57;;
42944;SDS011;28584;42.636;23.294;2023-10-19T00:08:00;21.30;;;16.07;;
42944;SDS011;28584;42.636;23.294;2023-10-19T00:10:31;20.37;;;15.43;;
42944;SDS011;28584;42.636;23.294;2023-10-19T00:13:02;22.73;;;17.03;;
42944;SDS011;28584;42.636;23.294;2023-10-19T00:15:33;22.93;;;16.80;;
42944;SDS011;28584;42.636;23.294;2023-10-19T00:18:02;19.93;;;15.50;;
42944;SDS011;28584;42.636;23.294;2023-10-19T00:20:44;22.43;;;15.77;;
42944;SDS011;28584;42.636;23.294;2023-10-19T00:23:11;22.47;;;16.30;;
42944;SDS011;28584;42.636;23.294;2023-10-19T00:25:49;18.90;;;14.83;;
42944;SDS011;28584;42.636;23.294;2023-10-19T00:28:16;20.40;;;15.33;;
42944;SDS011;28584;42.636;23.294;2023-10-19T00:30:43;18.97;;;14.70;;
42944;SDS011;28584;42.636;23.294;2023-10-19T00:33:10;17.37;;;14.23;;
42944;SDS011;28584;42.636;23.294;2023-10-19T00:35:49;19.13;;;13.37;;
42944;SDS011;28584;42.636;23.294;2023-10-19T00:38:26;19.27;;;14.53;;
42944;SDS011;28584;42.636;23.294;2023-10-19T00:40:52;20.13;;;15.13;;
42944;SDS011;28584;42.636;23.294;2023-10-19T00:43:29;19.13;;;15.10;;
42944;SDS011;28584;42.636;23.294;2023-10-19T00:46:02;19.97;;;15.47;;
42944;SDS011;28584;42.636;23.294;2023-10-19T00:48:35;19.77;;;15.87;;
42944;SDS011;28584;42.636;23.294;2023-10-19T00:51:02;21.47;;;14.97;;
42944;SDS011;28584;42.636;23.294;2023-10-19T00:53:52;20.13;;;15.43;;
42944;SDS011;28584;42.636;23.294;2023-10-19T00:56:22;19.10;;;14.13;;
42944;SDS011;28584;42.636;23.294;2023-10-19T00:58:51;19.77;;;15.20;;
42944;SDS011;28584;42.636;23.294;2023-10-19T01:01:22;19.17;;;14.60;;
42944;SDS011;28584;42.636;23.294;2023-10-19T01:03:53;19.50;;;15.13;;
42944;SDS011;28584;42.636;23.294;2023-10-19T01:06:24;17.60;;;13.73;;
42944;SDS011;28584;42.636;23.294;2023-10-19T01:08:51;17.87;;;13.13;;
42944;SDS011;28584;42.636;23.294;2023-10-19T01:11:17;17.07;;;13.73;;
42944;SDS011;28584;42.636;23.294;2023-10-19T01:13:46;18.93;;;14.30;;
42944;SDS011;28584;42.636;23.294;2023-10-19T01:16:16;20.03;;;13.37;;
42944;SDS011;28584;42.636;23.294;2023-10-19T01:18:48;17.00;;;13.83;;
42944;SDS011;28584;42.636;23.294;2023-10-19T01:21:22;19.27;;;13.80;;
42944;SDS011;28584;42.636;23.294;2023-10-19T01:24:01;20.13;;;15.20;;
42944;SDS011;28584;42.636;23.294;2023-10-19T01:26:26;18.70;;;15.27;;
42944;SDS011;28584;42.636;23.294;2023-10-19T01:28:52;19.17;;;15.67;;
42944;SDS011;28584;42.636;23.294;2023-10-19T01:31:25;21.47;;;15.87;;
42944;SDS011;28584;42.636;23.294;2023-10-19T01:33:54;19.97;;;15.50;;
42944;SDS011;28584;42.636;23.294;2023-10-19T01:36:24;22.57;;;16.73;;
42944;SDS011;28584;42.636;23.294;2023-10-19T01:38:55;21.00;;;16.13;;
42944;SDS011;28584;42.636;23.294;2023-10-19T01:41:23;19.27;;;14.90;;
42944;SDS011;28584;42.636;23.294;2023-10-19T01:43:51;20.67;;;15.43;;
42944;SDS011;28584;42.636;23.294;2023-10-19T01:46:22;19.23;;;14.33;;
42944;SDS011;28584;42.636;23.294;2023-10-19T01:48:49;20.50;;;15.27;;
42944;SDS011;28584;42.636;23.294;2023-10-19T01:51:19;18.50;;;14.67;;
42944;SDS011;28584;42.636;23.294;2023-10-19T01:53:46;17.17;;;13.87;;
42944;SDS011;28584;42.636;23.294;2023-10-19T01:56:12;21.57;;;15.67;;
42944;SDS011;28584;42.636;23.294;2023-10-19T01:58:40;21.27;;;16.07;;
42944;SDS011;28584;42.636;23.294;2023-10-19T02:01:07;19.97;;;15.60;;
42944;SDS011;28584;42.636;23.294;2023-10-19T02:03:59;18.70;;;15.07;;
42944;SDS011;28584;42.636;23.294;2023-10-19T02:06:29;22.43;;;16.40;;
42944;SDS011;28584;42.636;23.294;2023-10-19T02:09:06;24.93;;;17.20;;
42944;SDS011;28584;42.636;23.294;2023-10-19T02:11:59;28.80;;;18.23;;
42944;SDS011;28584;42.636;23.294;2023-10-19T02:14:27;48.73;;;27.20;;
42944;SDS011;28584;42.636;23.294;2023-10-19T02:16:56;82.77;;;37.77;;
42944;SDS011;28584;42.636;23.294;2023-10-19T02:19:23;123.33;;;49.10;;
42944;SDS011;28584;42.636;23.294;2023-10-19T02:21:51;81.70;;;37.00;;
42944;SDS011;28584;42.636;23.294;2023-10-19T02:24:18;48.77;;;26.23;;
42944;SDS011;28584;42.636;23.294;2023-10-19T02:26:45;30.90;;;20.53;;
42944;SDS011;28584;42.636;23.294;2023-10-19T02:29:19;21.90;;;16.40;;
42944;SDS011;28584;42.636;23.294;2023-10-19T02:31:47;20.27;;;15.93;;
42944;SDS011;28584;42.636;23.294;2023-10-19T02:34:13;21.30;;;16.47;;
42944;SDS011;28584;42.636;23.294;2023-10-19T02:36:42;22.37;;;16.53;;
42944;SDS011;28584;42.636;23.294;2023-10-19T02:39:09;85.50;;;36.83;;
42944;SDS011;28584;42.636;23.294;2023-10-19T02:41:37;93.73;;;40.63;;
42944;SDS011;28584;42.636;23.294;2023-10-19T02:44:14;42.00;;;23.37;;
42944;SDS011;28584;42.636;23.294;2023-10-19T02:46:46;77.60;;;34.87;;
42944;SDS011;28584;42.636;23.294;2023-10-19T02:49:17;76.80;;;35.40;;
42944;SDS011;28584;42.636;23.294;2023-10-19T02:51:44;92.70;;;42.13;;
42944;SDS011;28584;42.636;23.294;2023-10-19T02:54:11;110.73;;;43.67;;
42944;SDS011;28584;42.636;23.294;2023-10-19T02:56:45;82.40;;;38.53;;
42944;SDS011;28584;42.636;23.294;2023-10-19T02:59:18;61.47;;;31.57;;
42944;SDS011;28584;42.636;23.294;2023-10-19T03:01:47;59.10;;;29.83;;
42944;SDS011;28584;42.636;23.294;2023-10-19T03:04:13;43.17;;;25.17;;
42944;SDS011;28584;42.636;23.294;2023-10-19T03:06:40;60.10;;;29.80;;
42944;SDS011;28584;42.636;23.294;2023-10-19T03:09:06;57.53;;;30.33;;
42944;SDS011;28584;42.636;23.294;2023-10-19T03:11:40;53.73;;;27.40;;
42944;SDS011;28584;42.636;23.294;2023-10-19T03:14:10;40.63;;;23.30;;
42944;SDS011;28584;42.636;23.294;2023-10-19T03:16:37;29.20;;;19.83;;
42944;SDS011;28584;42.636;23.294;2023-10-19T03:19:06;32.30;;;19.70;;
42944;SDS011;28584;42.636;23.294;2023-10-19T03:21:32;30.43;;;21.27;;
42944;SDS011;28584;42.636;23.294;2023-10-19T03:24:06;29.50;;;19.07;;
42944;SDS011;28584;42.636;23.294;2023-10-19T03:26:37;39.53;;;22.50;;
42944;SDS011;28584;42.636;23.294;2023-10-19T03:29:03;26.27;;;19.50;;
42944;SDS011;28584;42.636;23.294;2023-10-19T03:31:39;25.93;;;18.83;;
42944;SDS011;28584;42.636;23.294;2023-10-19T03:34:11;32.03;;;20.87;;
42944;SDS011;28584;42.636;23.294;2023-10-19T03:36:38;28.97;;;20.60;;
42944;SDS011;28584;42.636;23.294;2023-10-19T03:39:04;33.57;;;21.73;;
42944;SDS011;28584;42.636;23.294;2023-10-19T03:41:50;26.97;;;19.83;;
42944;SDS011;28584;42.636;23.294;2023-10-19T03:44:17;28.30;;;19.90;;
42944;SDS011;28584;42.636;23.294;2023-10-19T03:46:48;26.37;;;18.53;;
42944;SDS011;28584;42.636;23.294;2023-10-19T03:49:29;26.50;;;18.53;;
42944;SDS011;28584;42.636;23.294;2023-10-19T03:52:04;30.57;;;20.50;;
42944;SDS011;28584;42.636;23.294;2023-10-19T03:54:30;27.33;;;20.17;;
42944;SDS011;28584;42.636;23.294;2023-10-19T03:56:58;28.07;;;19.80;;
42944;SDS011;28584;42.636;23.294;2023-10-19T03:59:28;27.17;;;19.03;;
42944;SDS011;28584;42.636;23.294;2023-10-19T04:01:57;26.60;;;18.50;;
42944;SDS011;28584;42.636;23.294;2023-10-19T04:04:24;25.63;;;18.83;;
42944;SDS011;28584;42.636;23.294;2023-10-19T04:06:50;31.00;;;19.70;;
42944;SDS011;28584;42.636;23.294;2023-10-19T04:09:22;24.40;;;17.77;;
42944;SDS011;28584;42.636;23.294;2023-10-19T04:11:48;27.07;;;18.33;;
42944;SDS011;28584;42.636;23.294;2023-10-19T04:14:14;24.07;;;17.47;;
42944;SDS011;28584;42.636;23.294;2023-10-19T04:16:40;27.37;;;19.20;;
42944;SDS011;28584;42.636;23.294;2023-10-19T04:19:09;26.73;;;18.53;;
42944;SDS011;28584;42.636;23.294;2023-10-19T04:21:39;25.77;;;17.77;;
42944;SDS011;28584;42.636;23.294;2023-10-19T04:24:09;24.97;;;18.13;;
42944;SDS011;28584;42.636;23.294;2023-10-19T04:26:35;27.47;;;18.60;;
42944;SDS011;28584;42.636;23.294;2023-10-19T04:29:02;27.10;;;19.17;;
42944;SDS011;28584;42.636;23.294;2023-10-19T04:31:38;27.13;;;18.40;;
42944;SDS011;28584;42.636;23.294;2023-10-19T04:34:15;24.20;;;17.50;;
42944;SDS011;28584;42.636;23.294;2023-10-19T04:36:45;26.07;;;17.93;;
42944;SDS011;28584;42.636;23.294;2023-10-19T04:41:40;25.37;;;17.37;;
42944;SDS011;28584;42.636;23.294;2023-10-19T04:44:06;23.93;;;17.40;;
42944;SDS011;28584;42.636;23.294;2023-10-19T04:46:34;22.83;;;16.83;;
42944;SDS011;28584;42.636;23.294;2023-10-19T04:49:00;30.87;;;20.73;;
42944;SDS011;28584;42.636;23.294;2023-10-19T04:51:26;29.60;;;20.80;;
42944;SDS011;28584;42.636;23.294;2023-10-19T04:53:53;32.17;;;21.57;;
42944;SDS011;28584;42.636;23.294;2023-10-19T04:56:20;32.20;;;21.77;;
42944;SDS011;28584;42.636;23.294;2023-10-19T04:58:46;34.27;;;22.10;;
42944;SDS011;28584;42.636;23.294;2023-10-19T05:01:12;28.53;;;20.47;;
42944;SDS011;28584;42.636;23.294;2023-10-19T05:03:38;26.70;;;18.80;;
42944;SDS011;28584;42.636;23.294;2023-10-19T05:06:03;31.80;;;20.27;;
42944;SDS011;28584;42.636;23.294;2023-10-19T05:08:29;35.60;;;21.30;;
42944;SDS011;28584;42.636;23.294;2023-10-19T05:10:57;28.20;;;18.97;;
42944;SDS011;28584;42.636;23.294;2023-10-19T05:13:24;30.00;;;20.40;;
42944;SDS011;28584;42.636;23.294;2023-10-19T05:15:54;29.73;;;20.23;;
42944;SDS011;28584;42.636;23.294;2023-10-19T05:18:20;28.83;;;19.87;;
42944;SDS011;28584;42.636;23.294;2023-10-19T05:20:46;32.30;;;22.00;;
42944;SDS011;28584;42.636;23.294;2023-10-19T05:23:12;32.60;;;20.43;;
42944;SDS011;28584;42.636;23.294;2023-10-19T05:25:40;27.70;;;19.80;;
42944;SDS011;28584;42.636;23.294;2023-10-19T05:28:06;29.27;;;20.33;;
42944;SDS011;28584;42.636;23.294;2023-10-19T05:30:32;27.90;;;20.00;;
42944;SDS011;28584;42.636;23.294;2023-10-19T05:32:59;29.73;;;20.47;;
42944;SDS011;28584;42.636;23.294;2023-10-19T05:35:26;34.17;;;21.17;;
42944;SDS011;28584;42.636;23.294;2023-10-19T05:37:53;95.83;;;69.23;;
42944;SDS011;28584;42.636;23.294;2023-10-19T05:40:21;47.73;;;34.07;;
42944;SDS011;28584;42.636;23.294;2023-10-19T05:42:48;46.67;;;33.60;;
42944;SDS011;28584;42.636;23.294;2023-10-19T05:45:14;45.83;;;30.77;;
42944;SDS011;28584;42.636;23.294;2023-10-19T05:47:42;42.87;;;30.53;;
42944;SDS011;28584;42.636;23.294;2023-10-19T05:50:11;40.83;;;28.33;;
42944;SDS011;28584;42.636;23.294;2023-10-19T05:52:42;42.10;;;29.30;;
42944;SDS011;28584;42.636;23.294;2023-10-19T05:55:11;40.20;;;28.30;;
42944;SDS011;28584;42.636;23.294;2023-10-19T05:57:37;34.37;;;26.03;;
42944;SDS011;28584;42.636;23.294;2023-10-19T06:00:08;32.40;;;25.55;;
42944;SDS011;28584;42.636;23.294;2023-10-19T06:02:40;35.42;;;24.27;;
42944;SDS011;28584;42.636;23.294;2023-10-19T06:05:11;32.60;;;23.40;;
42944;SDS011;28584;42.636;23.294;2023-10-19T06:07:40;33.03;;;24.77;;
42944;SDS011;28584;42.636;23.294;2023-10-19T06:10:13;26.17;;;22.02;;
42944;SDS011;28584;42.636;23.294;2023-10-19T06:12:47;42.17;;;29.45;;
42944;SDS011;28584;42.636;23.294;2023-10-19T06:15:15;43.47;;;28.70;;
42944;SDS011;28584;42.636;23.294;2023-10-19T06:17:42;43.30;;;28.27;;
42944;SDS011;28584;42.636;23.294;2023-10-19T06:20:09;40.80;;;28.38;;
42944;SDS011;28584;42.636;23.294;2023-10-19T06:22:49;46.13;;;30.85;;
42944;SDS011;28584;42.636;23.294;2023-10-19T06:25:18;47.42;;;30.98;;
42944;SDS011;28584;42.636;23.294;2023-10-19T06:27:46;92.65;;;36.47;;
42944;SDS011;28584;42.636;23.294;2023-10-19T06:30:12;57.35;;;36.80;;
42944;SDS011;28584;42.636;23.294;2023-10-19T06:32:42;92.20;;;39.28;;
42944;SDS011;28584;42.636;23.294;2023-10-19T06:35:26;58.60;;;38.08;;
42944;SDS011;28584;42.636;23.294;2023-10-19T06:37:53;58.20;;;37.87;;
42944;SDS011;28584;42.636;23.294;2023-10-19T06:40:22;63.17;;;38.93;;
42944;SDS011;28584;42.636;23.294;2023-10-19T06:42:47;64.07;;;41.92;;
42944;SDS011;28584;42.636;23.294;2023-10-19T06:45:15;66.45;;;41.35;;
42944;SDS011;28584;42.636;23.294;2023-10-19T06:47:45;63.10;;;40.57;;
42944;SDS011;28584;42.636;23.294;2023-10-19T06:50:12;64.97;;;40.77;;
42944;SDS011;28584;42.636;23.294;2023-10-19T06:52:40;65.32;;;39.65;;
42944;SDS011;28584;42.636;23.294;2023-10-19T06:55:07;61.38;;;40.38;;
42944;SDS011;28584;42.636;23.294;2023-10-19T06:58:00;55.97;;;38.08;;
42944;SDS011;28584;42.636;23.294;2023-10-19T07:00:26;63.55;;;42.42;;
42944;SDS011;28584;42.636;23.294;2023-10-19T07:02:52;54.13;;;36.08;;
42944;SDS011;28584;42.636;23.294;2023-10-19T07:05:20;56.92;;;36.97;;
42944;SDS011;28584;42.636;23.294;2023-10-19T07:07:47;43.10;;;31.27;;
42944;SDS011;28584;42.636;23.294;2023-10-19T07:10:15;41.95;;;28.02;;
42944;SDS011;28584;42.636;23.294;2023-10-19T07:12:43;36.53;;;26.63;;
42944;SDS011;28584;42.636;23.294;2023-10-19T07:15:10;32.97;;;23.80;;
42944;SDS011;28584;42.636;23.294;2023-10-19T07:17:55;30.00;;;21.23;;
42944;SDS011;28584;42.636;23.294;2023-10-19T07:20:22;25.35;;;19.70;;
42944;SDS011;28584;42.636;23.294;2023-10-19T07:22:53;28.00;;;20.48;;
42944;SDS011;28584;42.636;23.294;2023-10-19T07:25:30;28.98;;;18.20;;
42944;SDS011;28584;42.636;23.294;2023-10-19T07:27:56;23.25;;;17.08;;
42944;SDS011;28584;42.636;23.294;2023-10-19T07:30:24;19.17;;;15.50;;
42944;SDS011;28584;42.636;23.294;2023-10-19T07:32:53;20.35;;;14.85;;
42944;SDS011;28584;42.636;23.294;2023-10-19T07:35:24;21.45;;;15.40;;
42944;SDS011;28584;42.636;23.294;2023-10-19T07:37:51;17.17;;;14.05;;
42944;SDS011;28584;42.636;23.294;2023-10-19T07:40:17;23.17;;;16.73;;
42944;SDS011;28584;42.636;23.294;2023-10-19T07:42:46;23.10;;;15.60;;
42944;SDS011;28584;42.636;23.294;2023-10-19T07:45:14;19.08;;;12.57;;
42944;SDS011;28584;42.636;23.294;2023-10-19T07:47:40;18.58;;;13.45;;
42944;SDS011;28584;42.636;23.294;2023-10-19T07:50:09;17.52;;;12.32;;
42944;SDS011;28584;42.636;23.294;2023-10-19T07:52:41;15.65;;;12.95;;
42944;SDS011;28584;42.636;23.294;2023-10-19T07:55:15;22.45;;;14.18;;
42944;SDS011;28584;42.636;23.294;2023-10-19T07:57:41;16.42;;;13.70;;
42944;SDS011;28584;42.636;23.294;2023-10-19T08:00:07;20.52;;;13.52;;
42944;SDS011;28584;42.636;23.294;2023-10-19T08:02:35;19.85;;;14.60;;
42944;SDS011;28584;42.636;23.294;2023-10-19T08:05:02;18.70;;;15.57;;
42944;SDS011;28584;42.636;23.294;2023-10-19T08:07:28;27.50;;;16.20;;
42944;SDS011;28584;42.636;23.294;2023-10-19T08:09:54;21.35;;;14.88;;
42944;SDS011;28584;42.636;23.294;2023-10-19T08:12:20;20.40;;;15.70;;
42944;SDS011;28584;42.636;23.294;2023-10-19T08:14:47;23.63;;;15.88;;
42944;SDS011;28584;42.636;23.294;2023-10-19T08:17:13;21.08;;;15.57;;
42944;SDS011;28584;42.636;23.294;2023-10-19T08:19:39;19.30;;;14.77;;
42944;SDS011;28584;42.636;23.294;2023-10-19T08:22:05;21.40;;;15.43;;
42944;SDS011;28584;42.636;23.294;2023-10-19T08:24:30;22.50;;;15.63;;
42944;SDS011;28584;42.636;23.294;2023-10-19T08:27:00;15.95;;;13.30;;
42944;SDS011;28584;42.636;23.294;2023-10-19T08:29:26;18.92;;;13.93;;
42944;SDS011;28584;42.636;23.294;2023-10-19T08:31:51;16.42;;;13.82;;
42944;SDS011;28584;42.636;23.294;2023-10-19T08:34:17;18.27;;;14.35;;
42944;SDS011;28584;42.636;23.294;2023-10-19T08:36:44;20.27;;;14.98;;
42944;SDS011;28584;42.636;23.294;2023-10-19T08:39:09;19.42;;;13.55;;
42944;SDS011;28584;42.636;23.294;2023-10-19T08:41:38;18.42;;;13.95;;
42944;SDS011;28584;42.636;23.294;2023-10-19T08:44:05;21.35;;;15.38;;
42944;SDS011;28584;42.636;23.294;2023-10-19T08:46:40;15.73;;;12.70;;
42944;SDS011;28584;42.636;23.294;2023-10-19T08:49:13;18.60;;;13.50;;
42944;SDS011;28584;42.636;23.294;2023-10-19T08:51:40;15.57;;;13.30;;
42944;SDS011;28584;42.636;23.294;2023-10-19T08:54:09;19.05;;;13.32;;
42944;SDS011;28584;42.636;23.294;2023-10-19T08:56:36;14.65;;;12.98;;
42944;SDS011;28584;42.636;23.294;2023-10-19T08:59:02;13.50;;;11.75;;
42944;SDS011;28584;42.636;23.294;2023-10-19T09:01:28;17.33;;;13.32;;
42944;SDS011;28584;42.636;23.294;2023-10-19T09:04:00;15.30;;;12.40;;
42944;SDS011;28584;42.636;23.294;2023-10-19T09:06:26;17.33;;;12.23;;
42944;SDS011;28584;42.636;23.294;2023-10-19T09:08:56;15.80;;;12.52;;
42944;SDS011;28584;42.636;23.294;2023-10-19T09:11:23;16.55;;;12.75;;
42944;SDS011;28584;42.636;23.294;2023-10-19T09:13:52;12.45;;;10.40;;
42944;SDS011;28584;42.636;23.294;2023-10-19T09:16:21;15.93;;;11.50;;
42944;SDS011;28584;42.636;23.294;2023-10-19T09:18:48;16.70;;;11.68;;
42944;SDS011;28584;42.636;23.294;2023-10-19T09:21:20;18.73;;;12.05;;
42944;SDS011;28584;42.636;23.294;2023-10-19T09:23:53;17.83;;;11.75;;
42944;SDS011;28584;42.636;23.294;2023-10-19T09:26:22;13.65;;;10.60;;
42944;SDS011;28584;42.636;23.294;2023-10-19T09:28:50;12.55;;;9.93;;
42944;SDS011;28584;42.636;23.294;2023-10-19T09:31:17;16.17;;;11.25;;
42944;SDS011;28584;42.636;23.294;2023-10-19T09:33:44;13.98;;;11.23;;
42944;SDS011;28584;42.636;23.294;2023-10-19T09:36:11;12.80;;;9.43;;
42944;SDS011;28584;42.636;23.294;2023-10-19T09:38:43;15.75;;;11.30;;
42944;SDS011;28584;42.636;23.294;2023-10-19T09:41:19;12.25;;;10.00;;
42944;SDS011;28584;42.636;23.294;2023-10-19T09:43:47;12.48;;;8.65;;
42944;SDS011;28584;42.636;23.294;2023-10-19T09:46:20;9.43;;;8.25;;
42944;SDS011;28584;42.636;23.294;2023-10-19T09:48:48;10.85;;;8.25;;
42944;SDS011;28584;42.636;23.294;2023-10-19T09:51:14;8.38;;;7.47;;
42944;SDS011;28584;42.636;23.294;2023-10-19T09:53:41;11.40;;;7.88;;
42944;SDS011;28584;42.636;23.294;2023-10-19T09:56:11;11.95;;;8.80;;
42944;SDS011;28584;42.636;23.294;2023-10-19T09:58:50;7.88;;;7.05;;
42944;SDS011;28584;42.636;23.294;2023-10-19T10:01:18;9.40;;;7.15;;
42944;SDS011;28584;42.636;23.294;2023-10-19T10:03:50;11.43;;;7.75;;
42944;SDS011;28584;42.636;23.294;2023-10-19T10:09:19;11.23;;;8.68;;
42944;SDS011;28584;42.636;23.294;2023-10-19T10:11:49;8.95;;;8.00;;
42944;SDS011;28584;42.636;23.294;2023-10-19T10:14:24;9.82;;;7.65;;
42944;SDS011;28584;42.636;23.294;2023-10-19T10:17:16;9.90;;;8.85;;
42944;SDS011;28584;42.636;23.294;2023-10-19T10:19:43;9.50;;;8.05;;
42944;SDS011;28584;42.636;23.294;2023-10-19T10:22:09;10.02;;;8.10;;
42944;SDS011;28584;42.636;23.294;2023-10-19T10:24:45;11.75;;;8.38;;
42944;SDS011;28584;42.636;23.294;2023-10-19T10:27:11;8.10;;;6.97;;
42944;SDS011;28584;42.636;23.294;2023-10-19T10:32:44;10.40;;;8.73;;
42944;SDS011;28584;42.636;23.294;2023-10-19T10:35:09;11.30;;;9.48;;
42944;SDS011;28584;42.636;23.294;2023-10-19T10:37:37;13.07;;;10.52;;
42944;SDS011;28584;42.636;23.294;2023-10-19T10:40:05;11.88;;;8.93;;
42944;SDS011;28584;42.636;23.294;2023-10-19T10:42:31;13.27;;;9.18;;
42944;SDS011;28584;42.636;23.294;2023-10-19T10:44:56;13.07;;;9.65;;
42944;SDS011;28584;42.636;23.294;2023-10-19T10:47:23;10.32;;;9.15;;
42944;SDS011;28584;42.636;23.294;2023-10-19T10:55:05;10.82;;;9.20;;
42944;SDS011;28584;42.636;23.294;2023-10-19T10:57:33;9.48;;;8.55;;
42944;SDS011;28584;42.636;23.294;2023-10-19T11:00:02;9.15;;;8.02;;
42944;SDS011;28584;42.636;23.294;2023-10-19T11:02:30;10.32;;;8.30;;
42944;SDS011;28584;42.636;23.294;2023-10-19T11:04:55;9.98;;;8.13;;
42944;SDS011;28584;42.636;23.294;2023-10-19T11:07:21;9.13;;;8.13;;
42944;SDS011;28584;42.636;23.294;2023-10-19T11:09:46;15.90;;;9.15;;
42944;SDS011;28584;42.636;23.294;2023-10-19T11:12:13;11.02;;;9.02;;
42944;SDS011;28584;42.636;23.294;2023-10-19T11:14:56;12.13;;;8.95;;
42944;SDS011;28584;42.636;23.294;2023-10-19T11:17:41;9.40;;;8.15;;
42944;SDS011;28584;42.636;23.294;2023-10-19T11:20:07;10.10;;;8.07;;
42944;SDS011;28584;42.636;23.294;2023-10-19T11:22:44;8.45;;;7.55;;
42944;SDS011;28584;42.636;23.294;2023-10-19T11:27:45;8.00;;;7.20;;
42944;SDS011;28584;42.636;23.294;2023-10-19T11:30:12;11.13;;;7.97;;
42944;SDS011;28584;42.636;23.294;2023-10-19T11:32:38;6.93;;;6.25;;
42944;SDS011;28584;42.636;23.294;2023-10-19T11:35:04;9.75;;;7.75;;
42944;SDS011;28584;42.636;23.294;2023-10-19T11:37:45;13.45;;;7.53;;
42944;SDS011;28584;42.636;23.294;2023-10-19T11:40:21;7.93;;;7.00;;
42944;SDS011;28584;42.636;23.294;2023-10-19T11:42:47;9.60;;;8.35;;
42944;SDS011;28584;42.636;23.294;2023-10-19T11:45:13;10.98;;;8.18;;
42944;SDS011;28584;42.636;23.294;2023-10-19T11:47:39;10.73;;;7.78;;
42944;SDS011;28584;42.636;23.294;2023-10-19T11:50:05;8.45;;;7.65;;
42944;SDS011;28584;42.636;23.294;2023-10-19T11:52:31;9.05;;;7.40;;
42944;SDS011;28584;42.636;23.294;2023-10-19T11:54:56;11.50;;;8.27;;
42944;SDS011;28584;42.636;23.294;2023-10-19T11:57:23;11.00;;;7.28;;
42944;SDS011;28584;42.636;23.294;2023-10-19T11:59:49;9.48;;;7.45;;
42944;SDS011;28584;42.636;23.294;2023-10-19T12:02:20;9.05;;;7.03;;
42944;SDS011;28584;42.636;23.294;2023-10-19T12:04:46;9.27;;;7.53;;
42944;SDS011;28584;42.636;23.294;2023-10-19T12:07:11;10.57;;;7.40;;
42944;SDS011;28584;42.636;23.294;2023-10-19T12:09:37;9.90;;;8.00;;
42944;SDS011;28584;42.636;23.294;2023-10-19T12:12:06;8.30;;;7.45;;
42944;SDS011;28584;42.636;23.294;2023-10-19T12:14:32;8.20;;;6.90;;
42944;SDS011;28584;42.636;23.294;2023-10-19T12:17:01;8.88;;;7.80;;
42944;SDS011;28584;42.636;23.294;2023-10-19T12:19:30;9.63;;;7.57;;
42944;SDS011;28584;42.636;23.294;2023-10-19T12:21:56;8.93;;;7.32;;
42944;SDS011;28584;42.636;23.294;2023-10-19T12:24:21;10.27;;;8.32;;
42944;SDS011;28584;42.636;23.294;2023-10-19T12:26:48;8.45;;;7.00;;
42944;SDS011;28584;42.636;23.294;2023-10-19T12:29:13;9.30;;;7.20;;
42944;SDS011;28584;42.636;23.294;2023-10-19T12:31:41;7.47;;;6.75;;
42944;SDS011;28584;42.636;23.294;2023-10-19T12:34:07;7.95;;;6.72;;
42944;SDS011;28584;42.636;23.294;2023-10-19T12:36:32;8.63;;;7.05;;
42944;SDS011;28584;42.636;23.294;2023-10-19T12:38:59;10.35;;;7.43;;
42944;SDS011;28584;42.636;23.294;2023-10-19T12:41:25;11.20;;;7.47;;
42944;SDS011;28584;42.636;23.294;2023-10-19T12:43:52;10.13;;;7.50;;
42944;SDS011;28584;42.636;23.294;2023-10-19T12:46:22;10.48;;;7.55;;
42944;SDS011;28584;42.636;23.294;2023-10-19T12:48:52;8.13;;;7.32;;
42944;SDS011;28584;42.636;23.294;2023-10-19T12:51:20;11.27;;;8.20;;
42944;SDS011;28584;42.636;23.294;2023-10-19T12:53:52;14.18;;;7.75;;
42944;SDS011;28584;42.636;23.294;2023-10-19T12:56:18;13.30;;;7.47;;
42944;SDS011;28584;42.636;23.294;2023-10-19T12:58:44;25.08;;;8.48;;
42944;SDS011;28584;42.636;23.294;2023-10-19T13:01:09;9.05;;;7.38;;
42944;SDS011;28584;42.636;23.294;2023-10-19T13:03:42;10.15;;;7.10;;
42944;SDS011;28584;42.636;23.294;2023-10-19T13:06:10;8.13;;;6.90;;
42944;SDS011;28584;42.636;23.294;2023-10-19T13:08:37;10.10;;;7.38;;
42944;SDS011;28584;42.636;23.294;2023-10-19T13:11:05;8.23;;;6.93;;
42944;SDS011;28584;42.636;23.294;2023-10-19T13:13:31;15.65;;;6.72;;
42944;SDS011;28584;42.636;23.294;2023-10-19T13:15:56;7.70;;;6.47;;
42944;SDS011;28584;42.636;23.294;2023-10-19T13:18:22;9.95;;;6.72;;
42944;SDS011;28584;42.636;23.294;2023-10-19T13:20:53;10.40;;;6.72;;
42944;SDS011;28584;42.636;23.294;2023-10-19T13:23:19;8.32;;;7.10;;
42944;SDS011;28584;42.636;23.294;2023-10-19T13:25:48;10.13;;;7.90;;
42944;SDS011;28584;42.636;23.294;2023-10-19T13:28:26;7.95;;;6.90;;
42944;SDS011;28584;42.636;23.294;2023-10-19T13:30:52;7.85;;;7.05;;
42944;SDS011;28584;42.636;23.294;2023-10-19T13:33:19;8.63;;;7.40;;
42944;SDS011;28584;42.636;23.294;2023-10-19T13:35:51;11.55;;;7.25;;
42944;SDS011;28584;42.636;23.294;2023-10-19T13:38:18;6.85;;;6.15;;
42944;SDS011;28584;42.636;23.294;2023-10-19T13:40:47;8.32;;;6.45;;
42944;SDS011;28584;42.636;23.294;2023-10-19T13:43:15;9.27;;;6.25;;
42944;SDS011;28584;42.636;23.294;2023-10-19T13:45:43;7.40;;;6.63;;
42944;SDS011;28584;42.636;23.294;2023-10-19T13:48:10;7.00;;;6.32;;
42944;SDS011;28584;42.636;23.294;2023-10-19T13:50:43;8.27;;;6.10;;
42944;SDS011;28584;42.636;23.294;2023-10-19T13:53:14;7.07;;;6.20;;
42944;SDS011;28584;42.636;23.294;2023-10-19T13:55:40;8.13;;;6.30;;
42944;SDS011;28584;42.636;23.294;2023-10-19T13:58:06;6.88;;;6.18;;
42944;SDS011;28584;42.636;23.294;2023-10-19T14:00:32;8.73;;;6.57;;
42944;SDS011;28584;42.636;23.294;2023-10-19T14:03:00;10.63;;;6.80;;
42944;SDS011;28584;42.636;23.294;2023-10-19T14:05:29;8.93;;;6.88;;
42944;SDS011;28584;42.636;23.294;2023-10-19T14:08:01;10.88;;;7.60;;
42944;SDS011;28584;42.636;23.294;2023-10-19T14:10:28;9.45;;;6.85;;
42944;SDS011;28584;42.636;23.294;2023-10-19T14:12:55;7.78;;;6.57;;
42944;SDS011;28584;42.636;23.294;2023-10-19T14:15:21;8.15;;;6.60;;
42944;SDS011;28584;42.636;23.294;2023-10-19T14:17:47;7.75;;;7.03;;
42944;SDS011;28584;42.636;23.294;2023-10-19T14:20:13;9.43;;;7.25;;
42944;SDS011;28584;42.636;23.294;2023-10-19T14:22:48;11.27;;;7.38;;
42944;SDS011;28584;42.636;23.294;2023-10-19T14:25:14;8.95;;;6.97;;
42944;SDS011;28584;42.636;23.294;2023-10-19T14:27:41;10.95;;;7.10;;
42944;SDS011;28584;42.636;23.294;2023-10-19T14:30:14;10.48;;;7.63;;
42944;SDS011;28584;42.636;23.294;2023-10-19T14:32:43;10.27;;;8.15;;
42944;SDS011;28584;42.636;23.294;2023-10-19T14:35:13;8.95;;;7.45;;
42944;SDS011;28584;42.636;23.294;2023-10-19T14:37:44;10.00;;;7.95;;
42944;SDS011;28584;42.636;23.294;2023-10-19T14:40:12;9.68;;;7.47;;
42944;SDS011;28584;42.636;23.294;2023-10-19T14:42:40;9.57;;;8.00;;